KPWG

Details ICAO KPWG
Name MC GREGOR EXECUTIVE
Region United States
Timezone America/Chicago (UTC-6.0)
Plans Departing 5
Arriving 5
Stats Elevation 592 ft / 180 m (AMSL)
Location 31.484549° -97.316034°
Runways 2
Magnetic Variation 3.606° E
Sunrise 2017-12-14 13:22:03 UTC / 2017-12-14 07:22:03 Local
Sunset 2017-12-14 23:28:53 UTC / 2017-12-14 17:28:53 Local
Advertisement - Login to hide

Runways

ID Width Length Bearing (true) Bearing (mag) Surface Threshold Offset Overrun Length
04 55 ft / 17 m 3,462 ft / 1,055 m 43.83° 40.22° Asphalt 0 ft / 0 m 0 ft / 0 m
17 75 ft / 23 m 5,518 ft / 1,682 m 179.00° 175.39° Asphalt 0 ft / 0 m 0 ft / 0 m
22 55 ft / 17 m 3,462 ft / 1,055 m 223.83° 220.22° Asphalt 0 ft / 0 m 1,700 ft / 518 m
35 75 ft / 23 m 5,518 ft / 1,682 m 359.00° 355.39° Asphalt 0 ft / 0 m 0 ft / 0 m

Map

Weather


0- 5 10 15 20 25 30 35+ Temperature / ° C

Clouds and Precipitation
Forecast for 2017-12-14 18:00 UTC. Updated an hour ago

Ground ~20,000 ft ~40,000 ft Winds

METAR

KPWG 141556Z AUTO 36009KT 10SM FEW002 11/01 A3003 RMK AO2 SLP184 T01060006

TAF

Not found

Frequencies

Recorded 135.52 MHz AWOS 3
Approach 135.20 MHz WACO APP
Unicom 122.80 MHz CTAF/UNICOM
Departure 126.12 MHz WACO DEP
Warning: Do not use this data for real-world aviation or navigation. No guarantee of current accuracy is given.